Time;durP1;ratioP1;P1;durP2;ratioP2;P2;SDS_P1;SDS_P2;PMS_P1;PMS_P2;Temp;Humidity;BMP_temperature;BMP_pressure;BME280_temperature;BME280_humidity;BME280_pressure;Samples;Min_cycle;Max_cycle;Signal;HPM_P1;HPM_P2
2022/04/17 00:02:35;;;;;;;5.38;2.97;;;;;;;8.80;60.34;92958.81;4993849;28;20064;-94
2022/04/17 00:05:22;;;;;;;7.13;3.10;;;;;;;8.91;60.78;92967.44;5011387;28;20041;-94
2022/04/17 00:11:38;;;;;;;13.63;3.25;;;;;;;8.67;60.21;92931.44;5014093;28;20045;-94
2022/04/17 00:14:37;;;;;;;6.75;2.85;;;;;;;8.71;59.85;92942.13;5007512;28;20105;-94
2022/04/17 00:17:47;;;;;;;;;;;;;;;;;;;;;
2022/04/17 00:20:31;;;;;;;5.55;2.67;;;;;;;8.86;59.96;92964.84;5013710;28;20056;-95
2022/04/17 00:23:22;;;;;;;;;;;;;;;;;;;;;
2022/04/17 00:26:18;;;;;;;8.10;2.83;;;;;;;8.67;59.58;92935.88;5028675;28;20057;-95
2022/04/17 00:29:03;;;;;;;5.57;2.90;;;;;;;9.03;59.62;93007.13;5011501;28;20557;-94
2022/04/17 00:32:13;;;;;;;5.60;2.90;;;;;;;8.77;59.32;92972.41;4996954;28;20291;-95
2022/04/17 00:34:54;;;;;;;6.53;2.65;;;;;;;8.74;59.17;92970.34;4999749;28;20480;-94
2022/04/17 00:37:45;;;;;;;8.63;3.10;;;;;;;8.61;59.75;92947.38;5010865;28;20050;-93
2022/04/17 00:40:29;;;;;;;4.75;2.92;;;;;;;8.98;59.64;93014.16;5028072;28;20038;-95
2022/04/17 00:44:15;;;;;;;;;;;;;;;;;;;;;
2022/04/17 00:46:47;;;;;;;6.80;2.90;;;;;;;8.38;62.37;92978.13;5004445;28;20057;-94
2022/04/17 00:49:42;;;;;;;5.00;2.50;;;;;;;8.19;62.12;92959.56;5009482;28;20041;-93
2022/04/17 00:52:27;;;;;;;4.78;2.50;;;;;;;8.21;61.74;92951.50;5021756;28;20098;-93
2022/04/17 00:55:13;;;;;;;5.07;2.60;;;;;;;8.20;62.13;92978.63;5023536;28;20049;-93
2022/04/17 00:57:47;;;;;;;6.55;2.08;;;;;;;7.99;62.69;92959.53;5025430;28;20088;-93
2022/04/17 01:00:42;;;;;;;5.15;2.70;;;;;;;8.14;63.00;92985.66;5035421;28;20029;-92
2022/04/17 01:03:35;;;;;;;5.75;2.95;;;;;;;8.01;64.65;92976.50;5264132;22;21036;-93
2022/04/17 01:06:40;;;;;;;6.78;3.00;;;;;;;8.01;64.30;92988.75;5031133;28;20037;-94
2022/04/17 01:09:17;;;;;;;5.00;2.75;;;;;;;7.85;65.20;92956.66;5025271;28;20041;-94
2022/04/17 01:12:21;;;;;;;;;;;;;;;;;;;;;
2022/04/17 01:15:16;;;;;;;;;;;;;;;;;;;;;
2022/04/17 01:18:07;;;;;;;5.57;2.80;;;;;;;7.71;65.95;92959.75;5048491;28;20038;-94
2022/04/17 01:21:08;;;;;;;6.25;3.40;;;;;;;7.75;65.63;92967.06;5029484;28;20048;-94
2022/04/17 01:27:21;;;;;;;6.25;3.20;;;;;;;7.86;66.31;93005.16;5046997;28;20068;-92
2022/04/17 01:30:10;;;;;;;7.28;2.97;;;;;;;7.93;66.13;93016.13;5005085;28;20073;-93
2022/04/17 01:33:14;;;;;;;5.18;2.63;;;;;;;7.93;65.96;93016.13;5032430;28;20081;-94
2022/04/17 01:35:52;;;;;;;5.95;3.22;;;;;;;7.53;66.34;92973.22;5015995;28;20029;-94
2022/04/17 01:38:43;;;;;;;;;;;;;;;;;;;;;
2022/04/17 01:41:37;;;;;;;5.35;2.50;;;;;;;7.56;65.86;93001.38;5035045;28;20111;-95
2022/04/17 01:44:56;;;;;;;;;;;;;;;;;;;;;
2022/04/17 01:47:51;;;;;;;3.95;2.10;;;;;;;7.43;65.93;93007.03;5016746;28;20095;-93
2022/04/17 01:50:25;;;;;;;3.80;1.88;;;;;;;7.25;65.67;92977.81;5028853;28;20037;-94
2022/04/17 01:53:24;;;;;;;4.25;2.05;;;;;;;7.65;65.87;93040.75;5017445;28;20096;-94
2022/04/17 01:56:09;;;;;;;3.70;2.20;;;;;;;7.38;65.85;92999.22;5030949;28;20049;-93
2022/04/17 01:59:06;;;;;;;3.72;1.92;;;;;;;7.10;65.88;92967.31;5014466;28;20038;-94
2022/04/17 02:01:54;;;;;;;4.80;2.50;;;;;;;7.44;65.61;93034.69;5036588;28;20088;-94
2022/04/17 02:04:35;;;;;;;4.90;2.20;;;;;;;7.10;66.23;92982.94;5037543;28;20052;-94
2022/04/17 02:07:21;;;;;;;;;;;;;;;;;;;;;
2022/04/17 02:10:09;;;;;;;4.30;2.25;;;;;;;7.18;65.89;92995.47;5064749;28;20041;-94
2022/04/17 02:13:24;;;;;;;6.45;1.92;;;;;;;7.38;65.59;93027.88;4997389;28;20129;-95
2022/04/17 02:16:24;;;;;;;2.30;1.23;;;;;;;7.20;65.29;93001.19;4990714;28;20049;-94
2022/04/17 02:19:06;;;;;;;3.70;1.88;;;;;;;7.59;63.94;93018.31;4995304;28;20088;-93
2022/04/17 02:22:30;;;;;;;4.95;1.77;;;;;;;7.07;64.14;92981.63;5022508;28;20073;-94
2022/04/17 02:25:40;;;;;;;3.60;1.52;;;;;;;7.32;64.40;93036.69;5046874;28;20073;-94
2022/04/17 02:28:56;;;;;;;6.15;1.85;;;;;;;7.08;64.38;93011.03;5020355;28;20740;-94
2022/04/17 02:31:54;;;;;;;2.80;1.63;;;;;;;7.05;64.09;93006.34;5043315;28;20037;-94
2022/04/17 02:34:51;;;;;;;6.50;2.00;;;;;;;6.84;63.87;92974.94;5017959;28;20049;-94
2022/04/17 02:37:44;;;;;;;3.60;1.73;;;;;;;6.77;63.93;92956.19;5048522;28;20040;-94
2022/04/17 02:40:42;;;;;;;;;;;;;;;;;;;;;
2022/04/17 02:43:46;;;;;;;3.08;1.67;;;;;;;7.04;65.33;93031.56;5048106;28;20065;-94
2022/04/17 02:49:47;;;;;;;;;;;;;;;;;;;;;
2022/04/17 02:52:34;;;;;;;5.65;1.75;;;;;;;7.08;64.25;93011.81;5044141;28;20137;-94
2022/04/17 02:55:27;;;;;;;3.40;1.70;;;;;;;6.94;64.48;92994.28;5030185;28;20041;-93
2022/04/17 02:58:37;;;;;;;;;;;;;;;;;;;;;
2022/04/17 03:07:28;;;;;;;2.58;1.40;;;;;;;7.32;62.40;93018.44;5070004;28;20040;-94
2022/04/17 03:10:26;;;;;;;1.63;1.10;;;;;;;7.24;61.69;92994.47;5068982;28;20089;-94
2022/04/17 03:12:59;;;;;;;3.60;1.38;;;;;;;7.01;61.32;92951.38;5052932;28;20041;-95
2022/04/17 03:15:55;;;;;;;2.08;1.25;;;;;;;7.08;60.94;92953.75;5069417;28;20043;-95
2022/04/17 03:19:10;;;;;;;;;;;;;;;;;;;;;
2022/04/17 03:22:12;;;;;;;3.97;1.40;;;;;;;7.35;59.86;92976.28;5058854;28;20045;-94
2022/04/17 03:25:16;;;;;;;3.53;1.27;;;;;;;7.35;60.27;92978.91;5051531;28;20021;-94
2022/04/17 03:28:00;;;;;;;2.20;1.27;;;;;;;7.25;59.56;92954.38;5069416;28;20083;-95
2022/04/17 03:30:41;;;;;;;;;;;;;;;;;;;;;
2022/04/17 03:33:35;;;;;;;1.67;1.13;;;;;;;7.41;59.49;92994.28;5051341;28;20040;-94
2022/04/17 03:36:41;;;;;;;;;;;;;;;;;;;;;
2022/04/17 03:39:25;;;;;;;2.17;1.50;;;;;;;7.32;60.15;92984.59;5039179;28;20052;-93
2022/04/17 03:42:21;;;;;;;;;;;;;;;;;;;;;
2022/04/17 03:45:11;;;;;;;4.65;1.42;;;;;;;7.40;61.53;93012.78;5066368;28;20425;-94
2022/04/17 03:48:10;;;;;;;4.70;1.40;;;;;;;7.26;61.97;93002.81;5046591;28;20045;-93
2022/04/17 03:50:48;;;;;;;3.03;1.40;;;;;;;7.23;62.12;93000.72;5017934;28;20100;-94
2022/04/17 03:53:27;;;;;;;3.20;1.40;;;;;;;7.09;62.39;93007.38;5014304;28;20094;-94
2022/04/17 03:56:08;;;;;;;2.45;1.30;;;;;;;6.98;62.85;93001.34;5046949;28;20116;-94
2022/04/17 03:58:37;;;;;;;3.22;1.50;;;;;;;6.53;62.47;92937.56;5013976;28;20044;-95
2022/04/17 04:01:28;;;;;;;2.88;1.42;;;;;;;6.37;63.43;92926.28;5053818;28;20475;-95
2022/04/17 04:04:21;;;;;;;;;;;;;;;;;;;;;
2022/04/17 04:06:55;;;;;;;2.33;1.40;;;;;;;6.33;63.04;92932.22;5038586;28;20049;-95
2022/04/17 04:09:37;;;;;;;;;;;;;;;;;;;;;
2022/04/17 04:12:22;;;;;;;3.13;1.42;;;;;;;6.20;63.88;92921.19;5036622;28;20057;-94
2022/04/17 04:18:08;;;;;;;4.88;1.83;;;;;;;6.40;64.65;92975.16;5051677;28;20069;-94
2022/04/17 04:20:56;;;;;;;;;;;;;;;;;;;;;
2022/04/17 04:23:40;;;;;;;5.72;1.80;;;;;;;6.27;64.00;92978.19;5068510;28;20095;-94
2022/04/17 04:26:17;;;;;;;3.65;1.80;;;;;;;6.04;64.29;92955.88;5019833;28;20033;-95
2022/04/17 04:29:19;;;;;;;4.07;2.00;;;;;;;5.87;64.16;92939.56;5050049;28;20109;-95
2022/04/17 04:32:09;;;;;;;3.38;1.75;;;;;;;5.84;64.28;92946.06;5063400;28;20041;-94
2022/04/17 04:34:51;;;;;;;3.50;1.63;;;;;;;6.27;62.91;92996.38;5056475;28;20041;-93
2022/04/17 04:37:20;;;;;;;5.25;1.45;;;;;;;5.75;64.52;92930.13;5028853;28;20037;-94
2022/04/17 04:40:09;;;;;;;3.15;1.70;;;;;;;5.75;64.65;92943.09;5062623;28;20025;-94
2022/04/17 04:42:44;;;;;;;4.57;1.45;;;;;;;6.02;65.36;92984.72;5062021;28;20025;-94
2022/04/17 04:49:29;;;;;;;4.03;1.80;;;;;;;5.56;64.26;92932.28;5063476;28;20092;-95
2022/04/17 04:51:23;;;;;;;;;;;;;;;;;;;;;
2022/04/17 04:54:10;;;;;;;3.30;1.63;;;;;;;5.99;63.27;92984.41;5030579;28;20060;-94
2022/04/17 04:57:07;;;;;;;2.70;1.45;;;;;;;6.17;63.34;92991.88;5045615;28;20075;-94
2022/04/17 04:59:50;;;;;;;4.10;1.67;;;;;;;6.03;63.44;92972.50;4997204;28;20052;-94
2022/04/17 05:02:41;;;;;;;4.00;1.98;;;;;;;5.84;62.84;92940.84;5022543;28;20052;-94
2022/04/17 05:05:37;;;;;;;5.13;1.67;;;;;;;6.16;62.57;92966.13;5035138;28;20073;-94
2022/04/17 05:08:59;;;;;;;2.72;1.50;;;;;;;6.16;62.64;92958.31;5047155;28;20065;-95
2022/04/17 05:11:50;;;;;;;;;;;;;;;;;;;;;
2022/04/17 05:14:46;;;;;;;;;;;;;;;;;;;;;
2022/04/17 05:17:48;;;;;;;5.57;1.50;;;;;;;6.47;61.89;92995.78;5036816;28;20052;-95
2022/04/17 05:20:17;;;;;;;3.40;1.60;;;;;;;6.61;62.29;92981.31;5062513;22;20068;-76
2022/04/17 05:22:44;;;;;;;3.08;1.40;;;;;;;6.67;62.00;92989.94;4997977;28;20461;-76
2022/04/17 05:25:10;;;;;;;3.45;1.70;;;;;;;6.62;62.35;92992.50;4997437;28;20034;-76
2022/04/17 05:27:35;;;;;;;5.55;1.73;;;;;;;6.63;61.96;92989.66;4997839;28;20042;-76
2022/04/17 05:30:01;;;;;;;4.65;1.83;;;;;;;6.70;61.89;92997.25;4998414;28;20034;-76
2022/04/17 05:32:27;;;;;;;3.17;1.50;;;;;;;6.85;60.29;93002.56;4981568;28;20030;-76
2022/04/17 05:34:53;;;;;;;2.97;1.55;;;;;;;6.90;60.64;92999.22;4997610;28;20065;-76
2022/04/17 05:37:18;;;;;;;3.47;1.70;;;;;;;6.77;59.38;92999.63;4997786;28;20458;-76
2022/04/17 05:39:44;;;;;;;4.72;1.70;;;;;;;6.76;59.07;92998.84;4997614;28;20115;-76
2022/04/17 05:42:11;;;;;;;3.75;1.85;;;;;;;6.87;59.25;92990.09;4997036;28;20042;-76
2022/04/17 05:44:37;;;;;;;3.28;1.77;;;;;;;6.93;58.74;92997.91;5014902;28;20026;-76
2022/04/17 05:47:03;;;;;;;4.32;1.70;;;;;;;6.87;58.56;92991.91;5013973;28;20545;-76
2022/04/17 05:49:29;;;;;;;3.45;1.80;;;;;;;6.98;58.69;93000.53;5014085;28;20109;-75
2022/04/17 05:51:58;;;;;;;4.93;1.73;;;;;;;7.09;58.76;93002.97;5015610;28;20065;-76
2022/04/17 05:54:25;;;;;;;2.85;1.55;;;;;;;7.27;58.32;92990.56;4998294;28;20446;-76
2022/04/17 05:56:51;;;;;;;7.53;1.60;;;;;;;7.48;57.66;92988.84;4997290;28;20038;-76
2022/04/17 05:59:17;;;;;;;4.72;1.95;;;;;;;7.61;57.03;92998.00;4997859;28;20038;-76
2022/04/17 06:01:42;;;;;;;3.67;1.40;;;;;;;7.72;56.81;93000.41;5015847;28;20042;-75
2022/04/17 06:04:08;;;;;;;4.88;1.85;;;;;;;7.81;56.61;92992.84;4997604;28;20045;-75
2022/04/17 06:06:34;;;;;;;3.10;1.60;;;;;;;7.99;55.60;92988.22;5004948;28;20037;-75
2022/04/17 06:09:00;;;;;;;3.42;1.73;;;;;;;7.62;55.73;92994.38;4985187;28;20080;-77
2022/04/17 06:11:26;;;;;;;4.90;1.80;;;;;;;7.90;54.72;92990.53;5000323;28;20092;-75
2022/04/17 06:13:52;;;;;;;3.83;1.80;;;;;;;7.47;56.33;92992.47;5016664;28;20547;-77
2022/04/17 06:16:17;;;;;;;6.47;1.98;;;;;;;7.52;55.76;92995.13;5032850;28;20264;-77
2022/04/17 06:18:43;;;;;;;5.22;2.00;;;;;;;7.61;56.16;92987.59;5034115;28;20044;-75
2022/04/17 06:21:11;;;;;;;5.32;2.08;;;;;;;7.57;56.57;92992.53;5033733;28;20056;-75
2022/04/17 06:23:37;;;;;;;5.05;2.33;;;;;;;7.54;57.77;92990.41;5034231;28;20499;-75
2022/04/17 06:26:02;;;;;;;6.35;2.15;;;;;;;7.48;58.58;92988.84;5016505;28;20044;-75
2022/04/17 06:28:28;;;;;;;4.47;2.05;;;;;;;7.30;59.71;92992.69;5032264;28;20091;-75
2022/04/17 06:30:54;;;;;;;5.13;2.00;;;;;;;7.27;59.99;92998.38;5015283;28;20091;-75
2022/04/17 06:33:20;;;;;;;4.85;1.80;;;;;;;7.43;59.21;92996.63;5032754;28;20049;-75
2022/04/17 06:35:45;;;;;;;3.65;1.77;;;;;;;7.35;59.80;93003.09;5016183;28;20040;-75
2022/04/17 06:38:12;;;;;;;7.05;1.98;;;;;;;7.14;61.13;92998.81;5016381;28;20041;-75
2022/04/17 06:40:38;;;;;;;5.50;1.90;;;;;;;7.14;60.95;92999.63;5015775;28;20525;-75
2022/04/17 06:43:05;;;;;;;3.67;1.98;;;;;;;7.12;60.42;92996.47;5034061;28;20029;-75
2022/04/17 06:45:33;;;;;;;4.40;1.80;;;;;;;7.29;61.05;92991.91;5033431;28;20037;-75
2022/04/17 06:48:17;;;;;;;4.43;1.90;;;;;;;7.48;60.69;92992.22;5033522;28;20025;-75
2022/04/17 06:50:44;;;;;;;5.00;2.20;;;;;;;7.70;59.19;92989.47;5031577;28;20087;-75
2022/04/17 06:53:09;;;;;;;6.03;2.20;;;;;;;8.79;55.51;92985.22;5015208;28;20033;-75
2022/04/17 06:55:35;;;;;;;6.53;2.05;;;;;;;9.45;53.71;92982.44;5032363;28;20037;-75
2022/04/17 06:58:01;;;;;;;2.95;1.70;;;;;;;10.87;49.22;92987.16;5031417;28;20108;-76
2022/04/17 07:00:27;;;;;;;4.63;1.80;;;;;;;11.70;47.58;92977.41;4982856;28;20025;-75
2022/04/17 07:02:52;;;;;;;4.95;2.30;;;;;;;13.13;44.36;92978.00;4996058;28;20045;-77
2022/04/17 07:05:18;;;;;;;5.45;2.05;;;;;;;11.07;47.40;92978.34;5005588;28;20454;-76
2022/04/17 07:07:44;;;;;;;4.57;1.95;;;;;;;9.93;51.08;92979.38;4995104;28;20038;-76
2022/04/17 07:10:10;;;;;;;4.82;2.03;;;;;;;8.70;53.91;92977.13;4994863;28;20034;-76
2022/04/17 07:12:36;;;;;;;4.10;1.40;;;;;;;9.23;52.47;92982.78;4995803;28;20037;-78
2022/04/17 07:15:06;;;;;;;6.70;2.35;;;;;;;9.65;53.82;92965.91;5016065;28;20549;-77
2022/04/17 07:17:35;;;;;;;4.47;2.10;;;;;;;8.96;54.00;92965.59;5013539;28;20116;-77
2022/04/17 07:20:05;;;;;;;6.03;2.30;;;;;;;9.14;52.89;92971.28;4997535;28;20410;-78
2022/04/17 07:22:33;;;;;;;4.97;2.28;;;;;;;9.02;54.06;92973.41;4999190;28;20084;-77
2022/04/17 07:25:01;;;;;;;5.30;1.90;;;;;;;8.62;52.45;92985.47;5016088;28;20109;-77
2022/04/17 07:27:38;;;;;;;5.80;2.35;;;;;;;8.68;52.77;92969.53;5017881;28;20036;-78
2022/04/17 07:30:11;;;;;;;7.32;2.28;;;;;;;8.74;53.92;92967.72;5010188;28;20044;-77
2022/04/17 07:32:37;;;;;;;6.28;2.00;;;;;;;8.81;53.17;92972.69;5016205;28;20033;-78
2022/04/17 07:35:02;;;;;;;7.00;2.60;;;;;;;8.82;53.55;92961.94;5017210;28;20025;-77
2022/04/17 07:37:31;;;;;;;8.55;2.28;;;;;;;8.53;53.01;92966.94;5019133;28;20044;-77
2022/04/17 07:39:56;;;;;;;4.88;2.30;;;;;;;8.78;52.43;92963.53;5019907;28;20406;-78
2022/04/17 07:42:22;;;;;;;9.52;2.45;;;;;;;9.02;53.07;92962.97;5017881;28;20124;-78
2022/04/17 07:44:48;;;;;;;5.78;2.47;;;;;;;9.06;52.77;92954.34;5016705;28;20045;-78
2022/04/17 07:47:15;;;;;;;8.25;2.33;;;;;;;9.07;52.31;92955.13;5018336;28;20033;-78
2022/04/17 07:49:41;;;;;;;6.20;2.00;;;;;;;8.99;52.57;92953.84;5017926;28;20038;-77
2022/04/17 07:52:07;;;;;;;4.97;2.40;;;;;;;9.13;52.53;92948.84;5000279;28;20046;-78
2022/04/17 07:54:33;;;;;;;3.90;1.95;;;;;;;8.64;54.06;92957.28;5017926;28;20115;-78
2022/04/17 07:56:58;;;;;;;6.07;2.30;;;;;;;8.95;53.54;92947.59;5016917;28;20030;-78
2022/04/17 07:59:25;;;;;;;5.80;2.53;;;;;;;8.99;52.65;92948.63;5017637;28;20053;-78
2022/04/17 08:01:51;;;;;;;4.53;2.20;;;;;;;9.51;52.60;92949.25;5019847;28;20065;-78
2022/04/17 08:04:17;;;;;;;4.70;2.22;;;;;;;10.25;50.91;92941.53;5019383;28;20094;-78
2022/04/17 08:06:43;;;;;;;7.78;2.40;;;;;;;10.53;49.57;92938.19;5018960;28;20061;-78
2022/04/17 08:09:08;;;;;;;7.07;2.60;;;;;;;10.00;50.61;92932.81;5003714;28;20116;-78
2022/04/17 08:11:37;;;;;;;6.32;2.22;;;;;;;10.21;49.18;92939.44;5002245;28;20033;-78
2022/04/17 08:14:03;;;;;;;6.28;2.47;;;;;;;10.76;49.58;92935.91;5002156;28;20068;-78
2022/04/17 08:16:29;;;;;;;4.65;2.25;;;;;;;11.53;47.68;92937.75;5020088;28;20029;-78
2022/04/17 08:18:54;;;;;;;4.50;2.00;;;;;;;11.38;47.64;92934.25;5023133;28;20049;-78
2022/04/17 08:21:20;;;;;;;5.53;2.38;;;;;;;11.72;46.69;92935.19;5002883;28;20058;-78
2022/04/17 08:23:46;;;;;;;6.97;2.63;;;;;;;11.38;47.08;92925.63;5004373;28;20104;-78
2022/04/17 08:26:11;;;;;;;5.55;2.35;;;;;;;11.08;47.30;92926.72;5005491;28;20041;-78
2022/04/17 08:28:37;;;;;;;9.27;2.60;;;;;;;10.69;48.95;92935.47;5004934;28;20026;-78
2022/04/17 08:31:03;;;;;;;4.63;2.25;;;;;;;10.28;49.24;92927.91;5004123;28;20041;-77
2022/04/17 08:33:29;;;;;;;6.45;2.15;;;;;;;10.19;50.50;92931.09;5003019;28;20034;-77
2022/04/17 08:35:57;;;;;;;8.73;2.85;;;;;;;9.82;50.90;92922.94;5000686;28;20061;-78
2022/04/17 08:38:23;;;;;;;11.45;2.65;;;;;;;10.18;50.59;92913.06;5019399;28;20048;-78
2022/04/17 08:40:50;;;;;;;6.07;2.60;;;;;;;9.96;50.83;92923.94;5002359;28;20046;-78
2022/04/17 08:43:18;;;;;;;6.95;2.90;;;;;;;10.28;50.32;92920.06;5019518;28;20098;-78
2022/04/17 08:45:46;;;;;;;5.65;2.50;;;;;;;9.84;51.37;92905.16;5002968;28;20040;-77
2022/04/17 08:48:12;;;;;;;5.43;2.63;;;;;;;9.76;51.74;92912.53;5020358;28;20038;-77
2022/04/17 08:50:37;;;;;;;6.57;2.42;;;;;;;10.31;50.08;92899.41;5002797;28;20048;-78
2022/04/17 08:53:04;;;;;;;5.65;2.55;;;;;;;10.08;50.13;92895.59;5022544;28;20054;-78
2022/04/17 08:55:30;;;;;;;5.18;2.50;;;;;;;10.45;49.47;92902.16;5025746;28;20037;-78
2022/04/17 08:57:55;;;;;;;6.57;2.80;;;;;;;10.08;49.59;92906.06;5024767;28;20391;-78
2022/04/17 09:00:21;;;;;;;4.95;2.53;;;;;;;9.53;50.03;92905.34;5008510;28;20084;-78
2022/04/17 09:02:48;;;;;;;6.10;2.72;;;;;;;10.08;50.81;92889.59;5025522;28;20034;-78
2022/04/17 09:05:16;;;;;;;5.32;2.80;;;;;;;10.46;49.26;92890.63;5009407;28;20493;-77
2022/04/17 09:07:47;;;;;;;6.00;2.92;;;;;;;10.34;49.00;92896.22;5026256;28;20033;-78
2022/04/17 09:10:31;;;;;;;9.98;2.75;;;;;;;10.46;49.21;92889.84;5007262;28;20034;-77
2022/04/17 09:13:01;;;;;;;6.95;3.00;;;;;;;9.85;50.04;92891.06;5007961;28;20045;-77
2022/04/17 09:15:36;;;;;;;6.20;2.75;;;;;;;10.13;49.54;92890.34;5007833;28;20606;-78
2022/04/17 09:18:06;;;;;;;8.05;3.33;;;;;;;10.14;49.70;92889.28;5025587;28;20025;-78
2022/04/17 09:20:32;;;;;;;6.18;2.92;;;;;;;10.39;48.76;92884.94;5023877;28;20058;-78
2022/04/17 09:23:04;;;;;;;10.82;3.03;;;;;;;10.58;49.09;92874.53;5008406;28;20053;-78
2022/04/17 09:25:29;;;;;;;6.95;2.90;;;;;;;11.14;48.37;92878.44;5008197;28;20042;-78
2022/04/17 09:28:01;;;;;;;7.63;3.10;;;;;;;11.29;46.33;92872.25;5026076;28;20391;-78
2022/04/17 09:30:32;;;;;;;9.25;3.30;;;;;;;11.51;46.18;92869.09;5025078;28;20038;-78
2022/04/17 09:33:02;;;;;;;6.30;2.80;;;;;;;11.86;45.57;92860.72;5009495;28;20097;-78
2022/04/17 09:35:27;;;;;;;11.38;3.88;;;;;;;11.85;45.05;92859.19;5026555;28;20338;-78
2022/04/17 09:38:02;;;;;;;10.23;3.05;;;;;;;12.41;44.57;92849.72;5025296;28;20022;-78
2022/04/17 09:40:29;;;;;;;7.65;2.97;;;;;;;12.73;43.75;92852.59;5008996;28;20073;-78
2022/04/17 09:43:08;;;;;;;9.20;3.28;;;;;;;13.07;43.43;92852.22;5009889;28;20057;-78
2022/04/17 09:45:34;;;;;;;7.10;3.00;;;;;;;13.74;42.50;92838.53;5009018;28;20034;-79
2022/04/17 09:47:59;;;;;;;9.77;3.50;;;;;;;12.64;44.04;92850.63;5026847;28;20033;-78
2022/04/17 09:50:31;;;;;;;10.43;3.25;;;;;;;13.40;43.21;92855.56;4992904;28;20065;-78
2022/04/17 09:52:58;;;;;;;9.00;3.50;;;;;;;13.34;41.48;92843.56;5025980;28;20034;-78
2022/04/17 09:55:27;;;;;;;10.20;3.17;;;;;;;12.22;43.32;92844.47;5026199;28;20022;-78
2022/04/17 09:57:58;;;;;;;10.23;3.10;;;;;;;11.34;45.71;92838.13;5007677;28;20511;-78
2022/04/17 10:00:24;;;;;;;10.40;3.17;;;;;;;11.64;45.45;92844.78;5023966;28;20399;-77
2022/04/17 10:02:50;;;;;;;9.85;2.90;;;;;;;11.69;45.33;92849.97;5023347;28;20040;-78
2022/04/17 10:05:17;;;;;;;6.82;3.13;;;;;;;11.65;45.50;92838.50;5024663;28;20033;-78
2022/04/17 10:07:45;;;;;;;8.93;3.15;;;;;;;11.60;45.90;92835.94;5022917;28;20585;-78
2022/04/17 10:10:13;;;;;;;5.43;2.92;;;;;;;10.81;46.86;92833.75;5024023;28;20113;-78
2022/04/17 10:12:43;;;;;;;9.07;2.92;;;;;;;11.68;45.63;92832.66;5023202;28;20021;-77
2022/04/17 10:15:11;;;;;;;9.75;3.63;;;;;;;11.88;44.86;92811.41;5006275;28;20192;-78
2022/04/17 10:17:42;;;;;;;7.32;2.90;;;;;;;11.92;45.30;92829.22;5007875;28;20042;-78
2022/04/17 10:20:10;;;;;;;9.40;2.97;;;;;;;11.99;44.23;92819.16;5005975;28;20068;-77
2022/04/17 10:22:38;;;;;;;6.75;3.15;;;;;;;11.60;44.96;92814.97;5023010;28;20084;-78
2022/04/17 10:25:06;;;;;;;8.90;3.40;;;;;;;11.61;45.69;92822.53;5022127;28;20084;-78
2022/04/17 10:27:48;;;;;;;6.82;3.10;;;;;;;11.74;45.83;92815.81;5022301;28;20033;-78
2022/04/17 10:30:18;;;;;;;9.00;4.47;;;;;;;11.43;46.54;92823.31;5005813;28;20124;-77
2022/04/17 10:33:17;;;;;;;9.98;3.25;;;;;;;11.60;45.14;92804.50;5023664;28;20149;-77
2022/04/17 10:35:58;;;;;;;7.90;3.42;;;;;;;11.80;44.60;92791.06;5005060;28;20030;-78
2022/04/17 10:38:25;;;;;;;8.60;3.20;;;;;;;12.12;44.59;92784.31;5023815;28;20106;-78
2022/04/17 10:41:02;;;;;;;6.72;3.30;;;;;;;11.66;44.70;92791.03;5023044;28;20125;-78
2022/04/17 10:43:33;;;;;;;7.38;3.10;;;;;;;12.19;44.75;92782.09;5022979;28;20047;-78
2022/04/17 10:46:09;;;;;;;8.80;3.63;;;;;;;11.93;44.30;92789.56;5005547;28;20038;-78
2022/04/17 10:49:00;;;;;;;8.30;3.30;;;;;;;11.58;45.06;92788.25;5006211;28;20034;-78
2022/04/17 10:51:34;;;;;;;6.88;3.22;;;;;;;12.11;44.31;92780.09;5022926;28;20373;-78
2022/04/17 10:54:07;;;;;;;9.68;3.60;;;;;;;12.19;44.24;92783.94;5021919;28;20064;-78
2022/04/17 10:56:35;;;;;;;6.80;3.30;;;;;;;12.25;43.14;92788.03;5022270;28;20035;-78
2022/04/17 10:59:06;;;;;;;11.48;3.40;;;;;;;12.41;43.00;92763.06;5022739;28;20030;-78
2022/04/17 11:01:44;;;;;;;10.70;3.75;;;;;;;12.27;43.32;92763.06;5022848;28;20038;-77
2022/04/17 11:04:27;;;;;;;13.02;5.32;;;;;;;12.38;43.45;92763.63;5021533;28;20529;-78
2022/04/17 11:07:06;;;;;;;10.27;3.50;;;;;;;12.70;42.90;92760.19;5005211;28;20064;-78
2022/04/17 11:09:39;;;;;;;11.80;3.60;;;;;;;12.29;42.97;92760.13;5004783;28;20037;-78
2022/04/17 11:12:11;;;;;;;11.32;3.83;;;;;;;12.47;42.52;92753.25;5021951;28;20041;-78
2022/04/17 11:14:39;;;;;;;7.83;3.33;;;;;;;12.85;42.47;92750.44;5021747;28;20022;-78
2022/04/17 11:17:08;;;;;;;9.48;3.50;;;;;;;12.34;42.21;92748.75;5004231;28;20084;-78
2022/04/17 11:19:36;;;;;;;8.90;3.45;;;;;;;12.46;43.24;92743.81;5004729;28;20042;-78
2022/04/17 11:22:04;;;;;;;10.35;3.38;;;;;;;12.61;42.71;92735.66;5003915;28;20038;-78
2022/04/17 11:24:54;;;;;;;7.28;3.30;;;;;;;13.09;41.69;92735.22;5021916;28;20041;-78
2022/04/17 11:27:32;;;;;;;10.68;3.40;;;;;;;12.65;41.95;92731.38;5005051;28;20037;-78
2022/04/17 11:29:59;;;;;;;9.23;3.28;;;;;;;12.89;42.66;92725.13;5022117;28;20495;-78
2022/04/17 11:32:27;;;;;;;10.98;3.60;;;;;;;13.07;42.08;92716.34;5005306;28;20034;-78
2022/04/17 11:34:55;;;;;;;7.88;3.40;;;;;;;12.91;41.91;92728.25;5021294;28;20527;-78
2022/04/17 11:37:23;;;;;;;9.27;3.80;;;;;;;12.77;42.17;92723.00;5022478;28;20029;-78
2022/04/17 11:39:50;;;;;;;9.15;3.38;;;;;;;13.04;41.07;92710.91;5022164;28;20030;-78
2022/04/17 11:42:17;;;;;;;7.88;3.22;;;;;;;12.29;41.45;92711.06;5022360;28;20060;-79
2022/04/17 11:44:47;;;;;;;9.00;3.17;;;;;;;12.63;42.16;92712.50;5021753;28;20460;-78
2022/04/17 11:47:15;;;;;;;7.78;3.65;;;;;;;13.09;41.75;92708.94;5022600;28;20061;-78
2022/04/17 11:49:42;;;;;;;12.60;3.58;;;;;;;13.28;41.29;92694.91;5022522;28;20092;-78
2022/04/17 11:52:10;;;;;;;14.50;4.07;;;;;;;13.53;41.38;92696.97;5022299;28;20495;-78
2022/04/17 11:54:36;;;;;;;9.25;3.60;;;;;;;13.57;40.81;92696.34;5004752;28;20064;-78
2022/04/17 11:57:02;;;;;;;7.93;3.47;;;;;;;13.61;41.30;92699.94;5004487;28;20038;-78
2022/04/17 11:59:27;;;;;;;8.05;3.25;;;;;;;13.95;39.16;92680.97;5005605;28;20042;-78
2022/04/17 12:02:09;;;;;;;5.68;2.80;;;;;;;13.16;40.26;92689.38;5004995;28;20042;-78
2022/04/17 12:04:38;;;;;;;8.43;3.72;;;;;;;13.35;41.10;92694.47;5022356;28;20042;-78
2022/04/17 12:07:04;;;;;;;7.78;3.35;;;;;;;13.59;40.52;92683.69;5004281;28;20030;-78
2022/04/17 12:09:32;;;;;;;12.68;3.55;;;;;;;13.43;40.47;92685.91;5028830;28;20022;-78
2022/04/17 12:11:58;;;;;;;6.68;2.88;;;;;;;13.17;40.39;92668.06;5042361;28;20041;-79
2022/04/17 12:14:31;;;;;;;8.93;3.50;;;;;;;13.39;40.50;92682.31;5041654;28;20099;-78
2022/04/17 12:16:57;;;;;;;7.35;3.13;;;;;;;13.28;40.65;92666.78;5024798;28;20047;-78
2022/04/17 12:19:26;;;;;;;6.88;3.20;;;;;;;13.35;39.76;92668.97;5041657;28;20064;-78
2022/04/17 12:21:52;;;;;;;10.45;3.80;;;;;;;13.29;40.48;92664.91;5040927;28;20076;-78
2022/04/17 12:24:19;;;;;;;9.85;3.50;;;;;;;13.39;40.24;92656.78;5007118;28;20041;-77
2022/04/17 12:26:46;;;;;;;8.95;3.55;;;;;;;13.28;40.03;92663.34;5041867;28;20067;-78
2022/04/17 12:29:13;;;;;;;9.60;3.50;;;;;;;12.76;41.05;92660.25;5040550;28;20091;-78
2022/04/17 12:31:39;;;;;;;10.23;3.70;;;;;;;13.25;40.54;92654.19;5040418;28;20042;-78
2022/04/17 12:34:09;;;;;;;9.43;3.67;;;;;;;13.21;40.33;92637.44;5041484;28;20052;-78
2022/04/17 12:36:42;;;;;;;8.30;3.33;;;;;;;13.51;41.19;92643.13;5041028;28;20032;-78
2022/04/17 12:39:09;;;;;;;11.88;3.28;;;;;;;13.63;39.85;92642.56;5024927;28;20053;-78
2022/04/17 12:41:42;;;;;;;7.78;3.67;;;;;;;13.78;39.12;92639.56;5008590;28;20096;-78
2022/04/17 12:44:09;;;;;;;8.20;3.80;;;;;;;13.53;39.39;92633.84;5011841;28;20038;-78
2022/04/17 12:46:36;;;;;;;9.73;3.72;;;;;;;13.80;39.83;92636.59;5022026;28;20124;-78
2022/04/17 12:49:06;;;;;;;12.50;3.92;;;;;;;13.82;39.13;92618.66;5022291;28;20064;-79
2022/04/17 12:51:34;;;;;;;8.40;3.13;;;;;;;13.80;39.03;92618.97;5018809;28;20042;-78
2022/04/17 12:54:01;;;;;;;6.93;3.15;;;;;;;13.87;39.28;92619.31;5003173;28;20029;-78
2022/04/17 12:56:27;;;;;;;7.28;3.28;;;;;;;13.83;39.29;92617.59;5002226;28;20046;-78
2022/04/17 12:58:58;;;;;;;7.70;3.58;;;;;;;13.40;40.06;92613.66;5007656;28;20391;-78
2022/04/17 13:01:27;;;;;;;11.15;3.83;;;;;;;14.03;39.60;92619.69;5019747;28;20061;-78
2022/04/17 13:04:26;;;;;;;9.68;3.70;;;;;;;14.07;39.04;92594.34;5014253;28;20056;-78
2022/04/17 13:07:10;;;;;;;10.20;3.88;;;;;;;14.24;39.33;92592.81;4988343;28;20088;-78
2022/04/17 13:09:35;;;;;;;11.60;3.78;;;;;;;14.13;38.92;92602.84;5022895;28;20362;-78
2022/04/17 13:12:01;;;;;;;10.38;4.00;;;;;;;13.92;39.59;92598.13;5021136;28;20045;-79
2022/04/17 13:14:27;;;;;;;7.95;3.45;;;;;;;13.46;40.07;92585.38;5021731;28;20033;-78